EST,Max TemperatureF,Mean TemperatureF,Min TemperatureF,Max Dew PointF,MeanDew PointF,Min DewpointF,Max Humidity, Mean Humidity, Min Humidity, Max Sea Level PressureIn, Mean Sea Level PressureIn, Min Sea Level PressureIn, Max VisibilityMiles, Mean VisibilityMiles, Min VisibilityMiles, Max Wind SpeedMPH, Mean Wind SpeedMPH, Max Gust SpeedMPH,PrecipitationIn, CloudCover, Events, WindDirDegrees
2014-1-1,79,75,71,73,70,64,93,83,73,30.19,30.13,30.05,10,10,7,20,13,24,0.05,6,Rain,110
2014-1-2,83,77,71,70,68,66,93,78,62,30.04,29.97,29.89,10,10,9,18,9,28,0.00,2,,194
2014-1-3,72,65,58,72,56,43,100,76,51,30.17,30.05,29.91,10,10,9,22,12,32,0.00,6,,345
2014-1-4,75,71,66,68,64,54,90,77,63,30.17,30.12,30.07,10,10,10,20,12,24,0.02,7,Rain,90
2014-1-5,81,76,71,72,68,65,87,76,64,30.06,30.01,29.96,10,10,9,25,10,32,0.03,5,Rain,161
2014-1-6,82,70,57,70,63,37,100,73,46,30.19,30.05,29.97,10,10,10,22,8,32,T,5,,260
2014-1-7,57,53,48,50,42,27,89,64,38,30.30,30.26,30.20,10,10,6,21,12,26,0.13,8,Rain,339
2014-1-8,69,59,49,67,61,48,100,94,87,30.30,30.23,30.20,10,7,2,23,14,31,0.32,8,Rain,48
2014-1-9,75,72,68,73,71,66,100,94,87,30.22,30.17,30.12,10,8,2,21,13,29,1.23,7,Rain,86
2014-1-10,78,75,71,73,71,68,94,87,79,30.16,30.12,30.07,10,10,10,23,12,26,0.00,5,,123
2014-1-11,80,75,70,73,71,69,100,85,69,30.12,30.06,29.99,10,10,10,21,11,26,0.00,3,,174
2014-1-12,77,71,64,70,64,54,100,73,46,30.16,30.11,30.04,10,10,8,14,7,18,0.00,4,,339
2014-1-13,77,73,68,70,67,63,93,84,74,30.15,30.10,30.04,10,10,10,16,9,21,0.00,4,,118
2014-1-14,81,74,67,71,67,63,100,79,58,30.04,29.99,29.94,10,10,10,18,7,24,0.00,4,,226
2014-1-15,70,64,57,66,59,47,100,76,52,30.02,29.98,29.94,10,10,4,16,6,22,0.03,7,Rain,305
2014-1-16,59,54,48,54,41,25,86,57,28,30.15,30.06,29.97,10,10,10,22,10,30,0.00,3,,305
2014-1-17,65,54,43,42,37,29,83,59,35,30.22,30.15,30.10,10,10,10,9,6,13,0.00,4,,312
2014-1-18,68,59,50,50,39,31,77,56,34,30.23,30.18,30.14,10,10,10,16,6,21,0.00,2,,324
2014-1-19,69,56,43,51,36,27,76,50,24,30.29,30.20,30.16,10,10,10,15,6,20,0.00,1,,285
2014-1-20,74,65,55,58,53,50,86,68,49,30.20,30.12,30.05,10,10,10,15,5,20,0.00,3,,238
2014-1-21,74,68,61,63,58,56,90,74,57,30.06,29.97,29.91,10,10,10,18,8,22,0.01,5,,230
2014-1-22,64,58,51,61,42,32,93,63,32,30.17,30.05,29.90,10,10,10,23,10,30,0.00,1,,314
2014-1-23,71,58,44,54,44,30,80,58,36,30.28,30.23,30.17,10,10,10,14,8,17,0.00,2,,1
2014-1-24,71,64,56,54,52,50,86,70,53,30.36,30.27,30.22,10,10,10,17,10,23,0.00,2,,355
2014-1-25,76,65,53,61,56,50,89,69,49,30.22,30.13,30.05,10,10,10,14,5,17,0.00,3,,250
2014-1-26,76,66,56,62,59,56,93,76,58,30.09,30.04,29.99,10,10,10,15,5,18,0.00,4,,196
2014-1-27,83,73,62,68,63,59,93,70,46,30.04,30.00,29.94,10,10,10,13,5,18,0.00,2,,210
2014-1-28,80,71,62,70,66,62,100,82,64,30.09,30.03,29.98,10,10,7,17,5,22,0.00,2,,158
2014-1-29,75,70,64,72,68,63,100,94,87,30.07,30.03,29.98,10,9,2,14,5,18,0.71,7,Rain,348
2014-1-30,69,65,60,70,64,60,100,97,93,30.11,30.05,30.02,10,8,4,14,7,18,0.68,8,Rain,354
2014-1-31,79,73,67,74,70,66,100,90,79,30.08,30.04,29.99,10,8,2,16,8,20,0.95,6,Rain,128